< < Back
Terminal Aerodrome Forecast


Current Version              Previous Versions:   1  2  3  4  5  6  7  8  9  

Terminal Aerodrome Forecast

273
FTUS44 KHUN 180532 CCA
TAFHSV
TAF COR
KHSV 180532Z 1806/1906 VRB03KT 2SM BR BKN005
      TEMPO 1809/1813 1/4SM FG VV001
     FM181500 11005KT P6SM OVC007
     FM181800 15006KT P6SM BKN025
     FM182100 15004KT P6SM OVC050
     FM190000 13004KT P6SM -SHRA OVC025
     FM190300 11006KT 4SM -SHRA BR OVC015=



Latest METAR

023
SAUS80 KWBC 181500 RRA
MTRHSV
METAR KHSV 181453Z 00000KT 10SM SCT010 BKN250 21/16 A2999 RMK AO2 SLP152
T02110161 55001 $


USA.gov is the U.S. government's official web portal to all federal, state and local government web resources and services.